Time;durP1;ratioP1;P1;durP2;ratioP2;P2;SDS_P1;SDS_P2;PMS_P1;PMS_P2;Temp;Humidity;BMP_temperature;BMP_pressure;BME280_temperature;BME280_humidity;BME280_pressure;Samples;Min_cycle;Max_cycle;Signal;HPM_P1;HPM_P2
2024/01/27 00:01:48;;;;;;;1.47;1.00;;;8.90;99.90;;;;;;7365582;19;20553;-74
2024/01/27 00:04:14;;;;;;;1.07;0.80;;;8.70;99.90;;;;;;7369983;19;20218;-73
2024/01/27 00:06:39;;;;;;;0.90;0.60;;;8.70;99.90;;;;;;7369619;19;20158;-73
2024/01/27 00:09:06;;;;;;;1.57;1.07;;;8.60;99.90;;;;;;7392206;19;20218;-73
2024/01/27 00:11:32;;;;;;;0.50;0.50;;;8.50;99.90;;;;;;7368625;19;20189;-74
2024/01/27 00:13:59;;;;;;;0.80;0.80;;;8.40;99.90;;;;;;7371692;19;20186;-73
2024/01/27 00:16:24;;;;;;;1.60;0.80;;;8.40;99.90;;;;;;7371502;19;20178;-74
2024/01/27 00:18:50;;;;;;;0.53;0.53;;;8.30;99.90;;;;;;7371632;19;20151;-74
2024/01/27 00:21:16;;;;;;;1.33;0.70;;;8.20;99.90;;;;;;7392107;19;20456;-73
2024/01/27 00:23:41;;;;;;;0.43;0.40;;;8.30;99.90;;;;;;7369188;19;20186;-72
2024/01/27 00:26:07;;;;;;;0.57;0.50;;;8.20;99.90;;;;;;7365606;19;20663;-75
2024/01/27 00:28:32;;;;;;;2.13;0.70;;;8.20;99.90;;;;;;7370076;19;20267;-74
2024/01/27 00:30:58;;;;;;;0.70;0.70;;;8.20;99.90;;;;;;7370263;19;20186;-72
2024/01/27 00:33:24;;;;;;;0.40;0.40;;;8.30;99.90;;;;;;7392923;19;20150;-74
2024/01/27 00:35:49;;;;;;;0.63;0.63;;;8.20;99.90;;;;;;7369027;19;20194;-75
2024/01/27 00:38:15;;;;;;;0.67;0.67;;;8.10;99.90;;;;;;7369525;19;20186;-74
2024/01/27 00:40:40;;;;;;;1.07;0.57;;;8.10;99.90;;;;;;7367321;19;20193;-74
2024/01/27 00:43:06;;;;;;;0.30;0.30;;;8.00;99.90;;;;;;7368569;19;20631;-73
2024/01/27 00:45:32;;;;;;;1.33;0.90;;;8.00;99.90;;;;;;7389003;19;20787;-73
2024/01/27 00:47:57;;;;;;;3.03;1.23;;;8.00;99.90;;;;;;7369096;19;20186;-75
2024/01/27 00:50:23;;;;;;;0.37;0.37;;;8.00;99.90;;;;;;7367780;19;20641;-74
2024/01/27 00:52:49;;;;;;;0.50;0.50;;;8.00;99.90;;;;;;7369227;19;20210;-72
2024/01/27 00:55:15;;;;;;;0.97;0.77;;;8.10;99.90;;;;;;7366295;19;20189;-74
2024/01/27 00:57:40;;;;;;;1.00;0.90;;;8.00;99.90;;;;;;7370451;19;20145;-74
2024/01/27 01:00:08;;;;;;;1.97;1.37;;;8.00;99.90;;;;;;7388166;19;20149;-73
2024/01/27 01:02:34;;;;;;;2.20;0.83;;;8.00;99.90;;;;;;7365938;19;20238;-74
2024/01/27 01:05:00;;;;;;;1.27;0.60;;;8.00;99.90;;;;;;7365766;19;20227;-74
2024/01/27 01:07:26;;;;;;;0.50;0.50;;;8.00;99.90;;;;;;7368700;19;20211;-74
2024/01/27 01:09:52;;;;;;;0.83;0.70;;;7.90;99.90;;;;;;7368607;19;20150;-73
2024/01/27 01:12:17;;;;;;;0.77;0.60;;;7.90;99.90;;;;;;7390166;19;20202;-72
2024/01/27 01:14:43;;;;;;;1.00;0.73;;;7.80;99.90;;;;;;7367893;19;20182;-73
2024/01/27 01:17:09;;;;;;;1.37;0.70;;;7.80;99.90;;;;;;7368490;19;20194;-73
2024/01/27 01:19:37;;;;;;;2.10;0.80;;;7.90;99.90;;;;;;7366806;19;20202;-74
2024/01/27 01:22:03;;;;;;;0.50;0.50;;;7.80;99.90;;;;;;7367057;19;20193;-74
2024/01/27 01:24:29;;;;;;;0.70;0.70;;;7.80;99.90;;;;;;7389949;19;20181;-74
2024/01/27 01:26:55;;;;;;;0.63;0.40;;;7.80;99.90;;;;;;7364244;19;20220;-76
2024/01/27 01:29:22;;;;;;;0.73;0.63;;;7.80;99.90;;;;;;7366853;19;20621;-74
2024/01/27 01:31:47;;;;;;;0.97;0.50;;;7.80;99.90;;;;;;7368764;19;20625;-73
2024/01/27 01:34:13;;;;;;;0.93;0.53;;;7.80;99.90;;;;;;7366711;19;20198;-73
2024/01/27 01:36:39;;;;;;;1.70;0.73;;;7.70;99.90;;;;;;7367926;19;20155;-75
2024/01/27 01:39:04;;;;;;;1.37;0.93;;;7.70;99.90;;;;;;7386001;19;20183;-73
2024/01/27 01:41:30;;;;;;;0.57;0.57;;;7.70;99.90;;;;;;7363296;19;20279;-74
2024/01/27 01:43:56;;;;;;;1.07;0.40;;;7.70;99.90;;;;;;7367402;19;20189;-74
2024/01/27 01:46:23;;;;;;;2.43;0.80;;;7.70;99.90;;;;;;7367396;19;20197;-74
2024/01/27 01:48:49;;;;;;;0.43;0.43;;;7.60;99.90;;;;;;7365882;19;20158;-75
2024/01/27 01:51:16;;;;;;;0.50;0.50;;;7.60;99.90;;;;;;7388244;19;20572;-74
2024/01/27 01:53:45;;;;;;;0.57;0.57;;;7.40;99.90;;;;;;7365936;19;20186;-73
2024/01/27 01:56:13;;;;;;;0.50;0.50;;;7.50;99.90;;;;;;7367349;19;20248;-74
2024/01/27 01:58:39;;;;;;;0.60;0.60;;;7.40;99.90;;;;;;7365105;19;20536;-72
2024/01/27 02:01:04;;;;;;;0.80;0.80;;;7.30;99.90;;;;;;7360669;19;20185;-73
2024/01/27 02:03:30;;;;;;;0.47;0.47;;;7.30;99.90;;;;;;7389632;19;20153;-74
2024/01/27 02:05:56;;;;;;;0.70;0.40;;;7.30;99.90;;;;;;7364792;19;20686;-74
2024/01/27 02:08:22;;;;;;;0.30;0.30;;;7.20;99.90;;;;;;7364209;19;20551;-74
2024/01/27 02:10:47;;;;;;;0.40;0.40;;;7.20;99.90;;;;;;7364366;19;20189;-74
2024/01/27 02:13:20;;;;;;;1.67;0.87;;;7.20;99.90;;;;;;7366420;19;20263;-73
2024/01/27 02:15:46;;;;;;;1.17;0.60;;;7.20;99.90;;;;;;7366290;19;20142;-74
2024/01/27 02:18:12;;;;;;;0.30;0.30;;;7.20;99.90;;;;;;7388543;19;20139;-73
2024/01/27 02:20:38;;;;;;;0.57;0.57;;;7.20;99.90;;;;;;7364383;19;20207;-74
2024/01/27 02:23:04;;;;;;;0.83;0.53;;;7.10;99.90;;;;;;7361314;19;20193;-74
2024/01/27 02:25:33;;;;;;;2.70;0.90;;;7.10;99.90;;;;;;7362986;19;20193;-73
2024/01/27 02:27:59;;;;;;;1.47;1.07;;;7.10;99.90;;;;;;7365375;19;20186;-74
2024/01/27 02:30:25;;;;;;;1.03;0.57;;;7.10;99.90;;;;;;7388004;19;20139;-74
2024/01/27 02:32:51;;;;;;;2.20;0.90;;;7.10;99.90;;;;;;7363953;19;20196;-73
2024/01/27 02:35:17;;;;;;;2.43;1.00;;;7.10;99.90;;;;;;7358386;19;20277;-72
2024/01/27 02:37:43;;;;;;;2.17;1.10;;;7.20;99.90;;;;;;7366408;19;20932;-73
2024/01/27 02:40:12;;;;;;;1.47;1.07;;;7.20;99.90;;;;;;7361517;19;20581;-72
2024/01/27 02:42:37;;;;;;;0.73;0.60;;;7.10;99.90;;;;;;7365526;19;20146;-73
2024/01/27 02:45:04;;;;;;;0.50;0.50;;;7.10;99.90;;;;;;7387167;19;20145;-73
2024/01/27 02:47:30;;;;;;;0.93;0.80;;;7.10;99.90;;;;;;7365061;19;20193;-73
2024/01/27 02:49:55;;;;;;;1.40;0.60;;;7.10;99.90;;;;;;7364059;19;20827;-72
2024/01/27 02:52:21;;;;;;;0.97;0.80;;;7.00;99.90;;;;;;7363020;19;20196;-73
2024/01/27 02:54:47;;;;;;;2.27;1.03;;;7.00;99.90;;;;;;7363770;19;20143;-74
2024/01/27 02:57:13;;;;;;;0.83;0.40;;;7.00;99.90;;;;;;7384934;19;20155;-74
2024/01/27 02:59:39;;;;;;;0.60;0.40;;;7.00;99.90;;;;;;7361978;19;20181;-73
2024/01/27 03:02:05;;;;;;;2.57;0.40;;;6.90;99.90;;;;;;7361679;19;20193;-74
2024/01/27 03:04:31;;;;;;;2.20;0.57;;;7.00;99.90;;;;;;7364294;19;20714;-73
2024/01/27 03:06:57;;;;;;;0.30;0.30;;;7.10;99.90;;;;;;7362709;19;20182;-74
2024/01/27 03:09:22;;;;;;;0.40;0.40;;;7.10;99.90;;;;;;7386540;19;20134;-73
2024/01/27 03:11:48;;;;;;;0.70;0.70;;;7.10;99.90;;;;;;7362438;19;20684;-74
2024/01/27 03:14:14;;;;;;;2.77;0.70;;;7.10;99.90;;;;;;7361411;19;20210;-73
2024/01/27 03:16:40;;;;;;;0.53;0.53;;;7.10;99.90;;;;;;7364204;19;20850;-73
2024/01/27 03:19:06;;;;;;;0.40;0.40;;;7.10;99.90;;;;;;7364662;19;20185;-73
2024/01/27 03:21:32;;;;;;;0.37;0.33;;;7.10;99.90;;;;;;7386995;19;20139;-74
2024/01/27 03:23:57;;;;;;;1.50;0.50;;;7.00;99.90;;;;;;7363044;19;20182;-73
2024/01/27 03:26:23;;;;;;;1.70;0.80;;;7.00;99.90;;;;;;7360670;19;20648;-73
2024/01/27 03:28:49;;;;;;;0.90;0.37;;;6.90;99.90;;;;;;7361309;19;20175;-73
2024/01/27 03:31:14;;;;;;;1.33;0.50;;;6.90;99.90;;;;;;7362274;19;20206;-74
2024/01/27 03:33:40;;;;;;;0.60;0.60;;;6.90;99.90;;;;;;7361868;19;20142;-75
2024/01/27 03:36:13;;;;;;;0.27;0.27;;;6.90;99.90;;;;;;7389489;19;20134;-73
2024/01/27 03:38:40;;;;;;;0.23;0.23;;;6.80;99.90;;;;;;7367772;19;20194;-74
2024/01/27 03:41:06;;;;;;;0.53;0.53;;;6.80;99.90;;;;;;7369634;19;20259;-74
2024/01/27 03:43:33;;;;;;;0.63;0.50;;;6.80;99.90;;;;;;7373360;19;20186;-73
2024/01/27 03:45:59;;;;;;;0.20;0.20;;;6.80;99.90;;;;;;7368726;19;20182;-73
2024/01/27 03:48:25;;;;;;;1.30;0.33;;;6.80;99.90;;;;;;7393840;19;20177;-73
2024/01/27 03:50:50;;;;;;;0.53;0.50;;;6.70;99.90;;;;;;7369297;19;20338;-73
2024/01/27 03:53:16;;;;;;;0.37;0.37;;;6.70;99.90;;;;;;7368834;19;20627;-73
2024/01/27 03:55:42;;;;;;;0.77;0.77;;;6.70;99.90;;;;;;7368701;19;20186;-73
2024/01/27 03:58:07;;;;;;;1.00;0.60;;;6.70;99.90;;;;;;7369339;19;20663;-73
2024/01/27 04:00:33;;;;;;;0.50;0.50;;;6.60;99.90;;;;;;7390179;19;20490;-73
2024/01/27 04:03:02;;;;;;;0.57;0.40;;;6.60;99.90;;;;;;7370366;19;20287;-74
2024/01/27 04:05:31;;;;;;;1.70;0.57;;;6.60;99.90;;;;;;7367052;19;20668;-74
2024/01/27 04:07:56;;;;;;;0.60;0.60;;;6.70;99.90;;;;;;7370230;19;20194;-74
2024/01/27 04:10:23;;;;;;;1.07;0.57;;;6.60;99.90;;;;;;7370197;19;20190;-73
2024/01/27 04:12:49;;;;;;;0.60;0.60;;;6.60;99.90;;;;;;7369405;19;21229;-73
2024/01/27 04:15:15;;;;;;;0.53;0.40;;;6.50;99.90;;;;;;7391560;19;20167;-74
2024/01/27 04:17:41;;;;;;;0.70;0.60;;;6.50;99.90;;;;;;7367441;19;20697;-73
2024/01/27 04:20:08;;;;;;;0.47;0.40;;;6.50;99.90;;;;;;7369630;19;20194;-72
2024/01/27 04:22:35;;;;;;;0.30;0.30;;;6.50;99.90;;;;;;7367807;19;20540;-73
2024/01/27 04:25:01;;;;;;;0.50;0.40;;;6.40;99.90;;;;;;7369353;19;20186;-72
2024/01/27 04:27:30;;;;;;;0.30;0.30;;;6.50;99.90;;;;;;7392175;19;20146;-73
2024/01/27 04:29:58;;;;;;;0.50;0.50;;;6.50;99.90;;;;;;7367778;19;20746;-72
2024/01/27 04:32:25;;;;;;;0.50;0.50;;;6.40;99.90;;;;;;7366833;19;20671;-74
2024/01/27 04:34:50;;;;;;;0.47;0.40;;;6.50;99.90;;;;;;7368826;19;20678;-73
2024/01/27 04:37:16;;;;;;;0.57;0.57;;;6.50;99.90;;;;;;7369132;19;20190;-73
2024/01/27 04:39:42;;;;;;;0.97;0.97;;;6.50;99.90;;;;;;7366661;19;20135;-72
2024/01/27 04:42:07;;;;;;;0.30;0.30;;;6.40;99.90;;;;;;7391406;19;20155;-72
2024/01/27 04:44:33;;;;;;;1.70;0.53;;;6.40;99.90;;;;;;7368767;19;20688;-72
2024/01/27 04:46:59;;;;;;;0.97;0.77;;;6.40;99.90;;;;;;7368740;19;20566;-74
2024/01/27 04:49:26;;;;;;;0.20;0.20;;;6.40;99.90;;;;;;7364867;19;20547;-73
2024/01/27 04:51:52;;;;;;;0.30;0.30;;;6.40;99.90;;;;;;7369769;19;20154;-74
2024/01/27 04:54:18;;;;;;;0.60;0.50;;;6.50;99.90;;;;;;7388735;19;20146;-72
2024/01/27 04:56:43;;;;;;;0.50;0.50;;;6.40;99.90;;;;;;7367393;19;20189;-74
2024/01/27 04:59:09;;;;;;;0.77;0.60;;;6.40;99.90;;;;;;7365221;19;20246;-74
2024/01/27 05:01:35;;;;;;;0.80;0.53;;;6.30;99.90;;;;;;7366832;19;20192;-74
2024/01/27 05:04:00;;;;;;;0.50;0.50;;;6.30;99.90;;;;;;7367586;19;20197;-73
2024/01/27 05:06:26;;;;;;;0.30;0.30;;;6.30;99.90;;;;;;7389354;19;20158;-73
2024/01/27 05:08:51;;;;;;;0.80;0.80;;;6.30;99.90;;;;;;7367699;19;20190;-73
2024/01/27 05:11:27;;;;;;;1.07;0.80;;;6.30;99.90;;;;;;7363232;19;20199;-72
2024/01/27 05:13:53;;;;;;;0.60;0.53;;;6.20;99.90;;;;;;7367224;19;20194;-73
2024/01/27 05:16:18;;;;;;;0.30;0.30;;;6.30;99.90;;;;;;7366839;19;20718;-73
2024/01/27 05:18:44;;;;;;;0.67;0.40;;;6.20;99.90;;;;;;7368223;19;20175;-73
2024/01/27 05:21:10;;;;;;;0.90;0.70;;;6.20;99.90;;;;;;7389212;19;20157;-74
2024/01/27 05:23:35;;;;;;;0.30;0.30;;;6.30;99.90;;;;;;7367444;19;20186;-74
2024/01/27 05:26:01;;;;;;;0.67;0.57;;;6.20;99.90;;;;;;7365779;19;20312;-73
2024/01/27 05:28:26;;;;;;;1.37;0.43;;;6.30;99.90;;;;;;7366246;19;20193;-72
2024/01/27 05:30:52;;;;;;;0.50;0.50;;;6.30;99.90;;;;;;7364905;19;20131;-73
2024/01/27 05:33:18;;;;;;;0.80;0.60;;;6.10;99.90;;;;;;7389342;19;20169;-73
2024/01/27 05:35:43;;;;;;;0.30;0.30;;;6.20;99.90;;;;;;7367319;19;20664;-73
2024/01/27 05:38:09;;;;;;;0.30;0.30;;;6.20;99.90;;;;;;7368656;19;20181;-74
2024/01/27 05:40:34;;;;;;;0.53;0.50;;;6.20;99.90;;;;;;7368275;19;20202;-74
2024/01/27 05:43:00;;;;;;;0.53;0.50;;;6.20;99.90;;;;;;7367493;19;20182;-73
2024/01/27 05:45:26;;;;;;;0.70;0.70;;;6.20;99.90;;;;;;7389917;19;20147;-73
2024/01/27 05:47:52;;;;;;;1.13;0.90;;;6.20;99.90;;;;;;7364891;19;20522;-73
2024/01/27 05:50:18;;;;;;;0.27;0.27;;;6.20;99.90;;;;;;7366028;19;20659;-73
2024/01/27 05:52:43;;;;;;;0.97;0.53;;;6.30;99.90;;;;;;7366079;19;20210;-73
2024/01/27 05:55:11;;;;;;;0.40;0.40;;;6.20;99.90;;;;;;7368279;19;20189;-73
2024/01/27 05:57:37;;;;;;;0.57;0.53;;;6.00;99.90;;;;;;7366154;19;20146;-73
2024/01/27 06:00:03;;;;;;;1.67;0.60;;;6.10;99.90;;;;;;7384738;19;20161;-74
2024/01/27 06:02:28;;;;;;;0.87;0.40;;;6.20;99.90;;;;;;7365503;19;21092;-73
2024/01/27 06:04:54;;;;;;;0.50;0.50;;;6.20;99.90;;;;;;7367086;19;20265;-73
2024/01/27 06:07:19;;;;;;;0.87;0.70;;;6.20;99.90;;;;;;7365142;19;20189;-74
2024/01/27 06:09:45;;;;;;;0.73;0.73;;;6.10;99.90;;;;;;7366710;19;20148;-73
2024/01/27 06:12:11;;;;;;;1.53;0.40;;;6.00;99.90;;;;;;7389215;19;20154;-73
2024/01/27 06:14:36;;;;;;;0.20;0.20;;;6.00;99.90;;;;;;7363016;19;20190;-73
2024/01/27 06:17:04;;;;;;;0.70;0.70;;;5.90;99.90;;;;;;7365694;19;20539;-73
2024/01/27 06:19:31;;;;;;;0.50;0.50;;;5.90;99.90;;;;;;7364284;19;20209;-73
2024/01/27 06:21:56;;;;;;;0.30;0.30;;;5.90;99.90;;;;;;7367624;19;20277;-74
2024/01/27 06:24:22;;;;;;;1.87;1.20;;;5.90;99.90;;;;;;7387141;19;20157;-74
2024/01/27 06:26:48;;;;;;;1.63;0.50;;;5.90;99.90;;;;;;7366610;19;20186;-74
2024/01/27 06:29:13;;;;;;;1.47;0.80;;;5.90;99.90;;;;;;7365167;19;20186;-73
2024/01/27 06:31:39;;;;;;;0.47;0.47;;;5.90;99.90;;;;;;7365015;19;20181;-74
2024/01/27 06:34:05;;;;;;;0.40;0.40;;;5.90;99.90;;;;;;7365902;19;20202;-79
2024/01/27 06:36:32;;;;;;;0.70;0.60;;;5.90;99.90;;;;;;7390255;19;20623;-73
2024/01/27 06:38:58;;;;;;;1.13;0.53;;;5.80;99.90;;;;;;7367040;19;20206;-73
2024/01/27 06:41:23;;;;;;;0.40;0.40;;;5.80;99.90;;;;;;7364481;19;20554;-73
2024/01/27 06:43:49;;;;;;;0.40;0.40;;;5.80;99.90;;;;;;7367486;19;20268;-73
2024/01/27 06:46:14;;;;;;;2.57;0.60;;;5.80;99.90;;;;;;7365499;19;20185;-74
2024/01/27 06:48:40;;;;;;;0.40;0.40;;;5.80;99.90;;;;;;7365682;19;20629;-74
2024/01/27 06:51:06;;;;;;;2.73;2.23;;;5.80;99.90;;;;;;7388307;19;20159;-75
2024/01/27 06:53:31;;;;;;;0.63;0.63;;;5.80;99.90;;;;;;7367790;19;20219;-75
2024/01/27 06:55:57;;;;;;;0.63;0.63;;;5.80;99.90;;;;;;7364559;19;20546;-74
2024/01/27 06:58:23;;;;;;;0.33;0.33;;;5.80;99.90;;;;;;7364454;19;20190;-76
2024/01/27 07:00:48;;;;;;;0.60;0.50;;;5.80;99.90;;;;;;7365357;19;20668;-74
2024/01/27 07:03:14;;;;;;;0.53;0.53;;;5.80;99.90;;;;;;7387106;19;20130;-74
2024/01/27 07:05:40;;;;;;;0.50;0.50;;;5.80;99.90;;;;;;7363313;19;20198;-73
2024/01/27 07:08:07;;;;;;;0.30;0.30;;;5.80;99.90;;;;;;7367089;19;20194;-72
2024/01/27 07:10:33;;;;;;;0.40;0.40;;;5.70;99.90;;;;;;7366844;19;20212;-73
2024/01/27 07:12:58;;;;;;;0.60;0.60;;;5.70;99.90;;;;;;7372829;19;20194;-73
2024/01/27 07:15:24;;;;;;;0.47;0.47;;;5.70;99.90;;;;;;7394647;19;20644;-73
2024/01/27 07:17:50;;;;;;;0.60;0.60;;;5.70;99.90;;;;;;7372932;19;20278;-73
2024/01/27 07:20:15;;;;;;;0.77;0.77;;;5.70;99.90;;;;;;7371553;19;20193;-74
2024/01/27 07:22:41;;;;;;;2.73;0.80;;;5.60;99.90;;;;;;7370685;19;20219;-74
2024/01/27 07:25:09;;;;;;;0.87;0.77;;;5.60;99.90;;;;;;7369438;19;20197;-74
2024/01/27 07:27:35;;;;;;;0.90;0.73;;;5.60;99.90;;;;;;7372113;19;20151;-74
2024/01/27 07:30:02;;;;;;;0.60;0.60;;;5.60;99.90;;;;;;7393109;19;20169;-74
2024/01/27 07:32:28;;;;;;;0.60;0.60;;;5.60;99.90;;;;;;7372085;19;20257;-74
2024/01/27 07:34:53;;;;;;;0.30;0.30;;;5.40;99.90;;;;;;7373180;19;20262;-74
2024/01/27 07:37:20;;;;;;;0.93;0.40;;;5.50;99.90;;;;;;7372092;19;20259;-74
2024/01/27 07:39:48;;;;;;;0.67;0.67;;;5.50;99.90;;;;;;7371220;19;20158;-74
2024/01/27 07:42:15;;;;;;;0.40;0.40;;;5.50;99.90;;;;;;7394333;19;20146;-73
2024/01/27 07:44:41;;;;;;;0.43;0.40;;;5.50;99.90;;;;;;7372533;19;20194;-73
2024/01/27 07:47:08;;;;;;;0.60;0.60;;;5.20;99.90;;;;;;7359802;19;20186;-73
2024/01/27 07:49:34;;;;;;;3.37;0.53;;;5.30;99.90;;;;;;7361368;19;20202;-72
2024/01/27 07:52:00;;;;;;;0.70;0.70;;;5.60;99.90;;;;;;7371453;19;20232;-73
2024/01/27 07:54:25;;;;;;;0.70;0.70;;;5.60;99.90;;;;;;7392101;19;20177;-71
2024/01/27 07:56:51;;;;;;;0.50;0.50;;;5.70;99.90;;;;;;7370428;19;20550;-73
2024/01/27 07:59:17;;;;;;;1.47;0.90;;;5.80;99.90;;;;;;7369237;19;20229;-72
2024/01/27 08:01:43;;;;;;;1.80;0.73;;;5.80;99.90;;;;;;7369817;19;20690;-74
2024/01/27 08:04:09;;;;;;;0.93;0.87;;;5.80;99.90;;;;;;7368794;19;20215;-73
2024/01/27 08:06:45;;;;;;;1.90;1.03;;;6.00;99.90;;;;;;7383430;19;20158;-73
2024/01/27 08:09:11;;;;;;;0.67;0.67;;;5.80;99.90;;;;;;7390686;19;20534;-71
2024/01/27 08:11:37;;;;;;;1.33;1.00;;;5.80;99.90;;;;;;7367821;19;20205;-72
2024/01/27 08:14:03;;;;;;;0.47;0.47;;;5.80;99.90;;;;;;7370248;19;20233;-73
2024/01/27 08:16:28;;;;;;;0.70;0.70;;;5.60;99.90;;;;;;7370139;19;20186;-70
2024/01/27 08:18:54;;;;;;;0.93;0.83;;;5.50;99.90;;;;;;7360044;19;20195;-72
2024/01/27 08:21:19;;;;;;;1.20;1.10;;;5.60;99.90;;;;;;7393054;19;20493;-73
2024/01/27 08:23:45;;;;;;;0.90;0.90;;;5.70;99.90;;;;;;7367807;19;20242;-74
2024/01/27 08:26:11;;;;;;;0.90;0.90;;;5.70;99.90;;;;;;7366426;19;20181;-73
2024/01/27 08:28:36;;;;;;;0.60;0.60;;;5.50;99.90;;;;;;7373066;19;20750;-73
2024/01/27 08:31:05;;;;;;;2.30;1.10;;;5.70;99.90;;;;;;7370406;19;20222;-73
2024/01/27 08:33:31;;;;;;;1.57;0.80;;;5.80;99.90;;;;;;7391435;19;20151;-73
2024/01/27 08:35:56;;;;;;;0.97;0.90;;;5.90;99.90;;;;;;7371778;19;20400;-72
2024/01/27 08:38:22;;;;;;;1.53;1.30;;;5.90;99.90;;;;;;7369866;19;20182;-73
2024/01/27 08:40:48;;;;;;;0.80;0.80;;;5.90;99.90;;;;;;7368253;19;20670;-72
2024/01/27 08:43:13;;;;;;;0.60;0.60;;;5.60;99.90;;;;;;7369124;19;20245;-72
2024/01/27 08:45:40;;;;;;;0.50;0.50;;;5.60;99.90;;;;;;7368630;19;20148;-72
2024/01/27 08:48:06;;;;;;;1.90;1.30;;;5.80;99.90;;;;;;7390869;19;20152;-74
2024/01/27 08:50:32;;;;;;;0.60;0.60;;;5.90;99.90;;;;;;7368290;19;20251;-74
2024/01/27 08:52:58;;;;;;;0.50;0.50;;;6.00;99.90;;;;;;7366608;19;20713;-74
2024/01/27 08:55:24;;;;;;;1.20;0.80;;;6.00;99.90;;;;;;7371130;19;20182;-75
2024/01/27 08:57:51;;;;;;;1.37;1.13;;;6.10;99.90;;;;;;7363190;19;20134;-74
2024/01/27 09:00:16;;;;;;;3.13;1.27;;;6.10;99.90;;;;;;7391780;19;20592;-74
2024/01/27 09:02:45;;;;;;;1.10;0.80;;;6.10;99.90;;;;;;7370948;19;20191;-74
2024/01/27 09:05:11;;;;;;;0.80;0.70;;;6.00;99.90;;;;;;7367982;19;20190;-74
2024/01/27 09:07:37;;;;;;;0.80;0.80;;;6.10;99.90;;;;;;7367942;19;20209;-74
2024/01/27 09:10:03;;;;;;;1.00;0.67;;;6.10;99.90;;;;;;7371297;19;20190;-73
2024/01/27 09:12:29;;;;;;;2.53;1.07;;;5.90;99.90;;;;;;7389459;19;20161;-72
2024/01/27 09:14:54;;;;;;;1.43;1.30;;;5.40;99.90;;;;;;7366380;19;20480;-73
2024/01/27 09:17:21;;;;;;;0.60;0.50;;;5.20;99.90;;;;;;7366376;19;20209;-72
2024/01/27 09:19:46;;;;;;;0.77;0.77;;;5.30;99.90;;;;;;7365847;19;20266;-73
2024/01/27 09:22:12;;;;;;;1.40;1.03;;;5.40;99.90;;;;;;7368010;19;20207;-73
2024/01/27 09:24:39;;;;;;;2.03;1.07;;;5.60;99.90;;;;;;7368416;19;20154;-72
2024/01/27 09:27:05;;;;;;;1.00;0.80;;;5.90;99.90;;;;;;7387634;19;20202;-73
2024/01/27 09:29:30;;;;;;;1.23;1.10;;;6.20;99.90;;;;;;7368853;19;20194;-73
2024/01/27 09:31:56;;;;;;;1.60;1.23;;;6.30;99.90;;;;;;7366707;19;20194;-73
2024/01/27 09:34:22;;;;;;;1.40;1.07;;;6.10;99.90;;;;;;7367341;19;20189;-73
2024/01/27 09:36:47;;;;;;;0.80;0.80;;;6.00;99.90;;;;;;7367943;19;20146;-73
2024/01/27 09:39:13;;;;;;;0.90;0.87;;;6.00;99.90;;;;;;7391178;19;20178;-73
2024/01/27 09:41:39;;;;;;;1.30;1.10;;;6.10;99.90;;;;;;7366480;19;20235;-73
2024/01/27 09:44:05;;;;;;;0.87;0.83;;;5.80;99.90;;;;;;7369342;19;20690;-73
2024/01/27 09:46:32;;;;;;;1.10;1.00;;;5.90;99.90;;;;;;7369885;19;20249;-73
2024/01/27 09:48:58;;;;;;;1.90;1.20;;;5.80;99.90;;;;;;7367665;19;20249;-73
2024/01/27 09:51:24;;;;;;;2.20;1.40;;;6.20;99.90;;;;;;7388014;19;20220;-74
2024/01/27 09:53:51;;;;;;;2.03;1.37;;;6.40;99.90;;;;;;7368311;19;20186;-72
2024/01/27 09:56:20;;;;;;;1.00;1.00;;;6.60;99.90;;;;;;7366898;19;20677;-72
2024/01/27 09:58:49;;;;;;;1.10;0.80;;;6.60;99.90;;;;;;7367526;19;20916;-73
2024/01/27 10:01:18;;;;;;;1.20;1.10;;;6.80;99.90;;;;;;7367201;19;20185;-72
2024/01/27 10:03:43;;;;;;;1.30;1.20;;;6.40;99.90;;;;;;7367960;19;20180;-72
2024/01/27 10:06:10;;;;;;;1.33;1.07;;;6.30;99.90;;;;;;7384411;19;20627;-72
2024/01/27 10:08:36;;;;;;;0.67;0.67;;;6.10;99.90;;;;;;7367561;19;20185;-72
2024/01/27 10:11:08;;;;;;;1.30;1.20;;;6.50;99.90;;;;;;7365961;19;20182;-72
2024/01/27 10:13:34;;;;;;;2.93;0.90;;;6.80;99.90;;;;;;7366529;19;20310;-74
2024/01/27 10:16:01;;;;;;;1.00;0.90;;;6.90;99.90;;;;;;7364723;19;20726;-74
2024/01/27 10:18:27;;;;;;;1.80;1.43;;;6.90;99.90;;;;;;7389644;19;20191;-73
2024/01/27 10:20:52;;;;;;;1.53;1.40;;;7.20;99.90;;;;;;7364364;19;20644;-77
2024/01/27 10:23:18;;;;;;;2.13;1.37;;;7.40;99.90;;;;;;7365677;19;20178;-76
2024/01/27 10:25:43;;;;;;;1.63;1.27;;;7.10;99.90;;;;;;7364638;19;20174;-76
2024/01/27 10:28:09;;;;;;;0.83;0.83;;;7.30;99.90;;;;;;7367669;19;20198;-77
2024/01/27 10:30:36;;;;;;;3.67;2.10;;;7.40;99.90;;;;;;7379232;19;20139;-77
2024/01/27 10:33:02;;;;;;;2.03;1.40;;;7.50;99.90;;;;;;7389343;19;20178;-78
2024/01/27 10:35:28;;;;;;;1.37;0.97;;;7.70;99.90;;;;;;7361803;19;20182;-75
2024/01/27 10:37:55;;;;;;;1.50;1.30;;;7.70;99.90;;;;;;7365204;19;20182;-75
2024/01/27 10:40:24;;;;;;;1.97;1.63;;;7.70;99.90;;;;;;7363481;19;20189;-77
2024/01/27 10:43:02;;;;;;;1.23;1.00;;;7.70;99.90;;;;;;7363616;19;20202;-78
2024/01/27 10:45:34;;;;;;;1.17;0.90;;;7.70;99.90;;;;;;7387567;19;20135;-77
2024/01/27 10:48:01;;;;;;;1.40;1.27;;;7.80;99.90;;;;;;7373793;19;20186;-78
2024/01/27 10:50:27;;;;;;;1.20;1.00;;;8.00;99.90;;;;;;7371478;19;20318;-78
2024/01/27 10:52:57;;;;;;;1.40;1.30;;;8.10;99.90;;;;;;7371800;19;20186;-77
2024/01/27 10:55:23;;;;;;;1.50;1.10;;;8.00;99.90;;;;;;7372180;19;20694;-77
2024/01/27 10:57:50;;;;;;;1.17;0.80;;;8.00;99.90;;;;;;7372490;19;20530;-78
2024/01/27 11:00:16;;;;;;;1.30;1.20;;;7.70;99.90;;;;;;7394054;19;20183;-78
2024/01/27 11:02:44;;;;;;;0.90;0.80;;;8.10;99.90;;;;;;7371525;19;20216;-78
2024/01/27 11:05:11;;;;;;;0.87;0.77;;;8.00;99.90;;;;;;7368346;19;20221;-77
2024/01/27 11:07:39;;;;;;;1.87;1.30;;;8.20;99.90;;;;;;7372879;19;20648;-77
2024/01/27 11:10:05;;;;;;;1.17;0.93;;;8.20;99.90;;;;;;7370950;19;20194;-77
2024/01/27 11:12:31;;;;;;;1.60;0.80;;;8.40;99.90;;;;;;7392637;19;20487;-77
2024/01/27 11:15:00;;;;;;;1.07;0.97;;;8.30;99.90;;;;;;7373772;19;20628;-77
2024/01/27 11:17:26;;;;;;;1.67;1.17;;;8.40;99.90;;;;;;7371173;19;20261;-78
2024/01/27 11:19:53;;;;;;;1.37;1.20;;;8.60;99.90;;;;;;7370571;19;20658;-78
2024/01/27 11:22:26;;;;;;;1.77;1.10;;;8.60;99.90;;;;;;7371334;19;20186;-77
2024/01/27 11:25:10;;;;;;;2.37;1.43;;;8.70;99.90;;;;;;7373144;19;20512;-78
2024/01/27 11:27:38;;;;;;;1.30;1.20;;;8.70;99.90;;;;;;7372918;19;20247;-78
2024/01/27 11:30:04;;;;;;;1.90;1.37;;;8.60;99.90;;;;;;7393995;19;20158;-80
2024/01/27 11:32:31;;;;;;;1.57;1.00;;;8.90;99.90;;;;;;7371422;19;20190;-79
2024/01/27 11:34:57;;;;;;;2.60;1.40;;;9.10;99.90;;;;;;7371257;19;20198;-79
2024/01/27 11:37:26;;;;;;;1.30;1.20;;;9.00;99.90;;;;;;7372259;19;20640;-79
2024/01/27 11:40:03;;;;;;;1.07;0.87;;;9.10;99.90;;;;;;7371032;19;20178;-79
2024/01/27 11:42:29;;;;;;;1.30;0.90;;;9.10;99.90;;;;;;7392799;19;20153;-78
2024/01/27 11:44:54;;;;;;;1.07;0.97;;;8.90;99.90;;;;;;7371947;19;20193;-79
2024/01/27 11:47:20;;;;;;;1.10;1.00;;;9.00;99.90;;;;;;7369809;19;20498;-78
2024/01/27 11:49:54;;;;;;;2.07;1.63;;;9.20;99.90;;;;;;7369904;19;20676;-78
2024/01/27 11:52:20;;;;;;;2.10;1.30;;;9.30;99.90;;;;;;7371822;19;20231;-77
2024/01/27 11:54:45;;;;;;;1.00;0.90;;;9.30;99.90;;;;;;7372131;19;20130;-78
2024/01/27 11:57:11;;;;;;;3.27;1.63;;;8.90;99.90;;;;;;7393056;19;20147;-80
2024/01/27 11:59:36;;;;;;;1.33;1.23;;;8.80;99.90;;;;;;7369949;19;20185;-79
2024/01/27 12:02:03;;;;;;;0.67;0.67;;;8.80;99.90;;;;;;7372115;19;20193;-79
2024/01/27 12:04:29;;;;;;;1.43;0.70;;;9.20;99.90;;;;;;7370827;19;20213;-78
2024/01/27 12:06:55;;;;;;;1.40;1.30;;;9.10;99.90;;;;;;7371438;19;20330;-77
2024/01/27 12:09:22;;;;;;;1.20;0.80;;;8.80;99.90;;;;;;7392581;19;20147;-78
2024/01/27 12:11:48;;;;;;;2.93;2.23;;;8.80;99.90;;;;;;7371854;19;20193;-78
2024/01/27 12:14:13;;;;;;;0.97;0.90;;;8.90;99.90;;;;;;7369505;19;20185;-78
2024/01/27 12:16:39;;;;;;;3.63;1.40;;;8.80;99.90;;;;;;7369043;19;20647;-77
2024/01/27 12:19:05;;;;;;;1.17;1.00;;;9.10;99.90;;;;;;7369423;19;20186;-76
2024/01/27 12:21:30;;;;;;;1.70;1.40;;;9.10;99.90;;;;;;7392206;19;20513;-78
2024/01/27 12:23:57;;;;;;;1.30;1.00;;;9.30;99.90;;;;;;7369553;19;20203;-78
2024/01/27 12:26:27;;;;;;;0.70;0.70;;;10.10;99.90;;;;;;7368811;19;20201;-78
2024/01/27 12:28:55;;;;;;;1.10;0.83;;;10.90;99.90;;;;;;7370197;19;20185;-79
2024/01/27 12:31:23;;;;;;;2.25;1.80;;;10.90;99.90;;;;;;7368515;19;20190;-78
2024/01/27 12:33:50;;;;;;;0.83;0.83;;;10.80;99.90;;;;;;7367571;19;20475;-77
2024/01/27 12:36:19;;;;;;;0.70;0.70;;;10.80;99.90;;;;;;7391945;19;20717;-77
2024/01/27 12:39:04;;;;;;;1.60;1.10;;;10.30;99.90;;;;;;7367881;19;20527;-77
2024/01/27 12:41:34;;;;;;;1.50;1.00;;;10.30;99.90;;;;;;7366751;19;20193;-78
2024/01/27 12:44:01;;;;;;;0.87;0.77;;;10.30;99.90;;;;;;7370661;19;20186;-78
2024/01/27 12:46:29;;;;;;;1.05;0.60;;;10.50;99.90;;;;;;7366968;19;20178;-76
2024/01/27 12:48:55;;;;;;;0.70;0.70;;;10.40;99.90;;;;;;7368651;19;20179;-77
2024/01/27 12:51:21;;;;;;;3.87;1.40;;;10.60;99.90;;;;;;7388745;19;20945;-77
2024/01/27 12:53:47;;;;;;;1.43;1.10;;;10.60;99.90;;;;;;7369698;19;20207;-77